This is the latest recevied weather packets stored in our database for station/object IZ1RFL-3. If no packets are shown the sender has not sent any weather packets the latest 10 day(s).
| Time | Temp. | Humidity | Pressure | Rain* | Wind** | Luminosity | Snow |
|---|---|---|---|---|---|---|---|
| 1778202968 | 13.33° C | 73% | 1015.3 hPa | - | - | - | - |
| 1778202068 | 13.33° C | 73% | 1015.4 hPa | - | - | - | - |
| 1778201168 | 13.33° C | 72% | 1015.3 hPa | - | - | - | - |
| 1778200268 | 12.78° C | 73% | 1015.4 hPa | - | - | - | - |
| 1778199368 | 13.89° C | 71% | 1015.3 hPa | - | - | - | - |
| 1778198468 | 13.33° C | 71% | 1015.5 hPa | - | - | - | - |
| 1778197568 | 13.89° C | 69% | 1015.5 hPa | - | - | - | - |
| 1778196668 | 13.33° C | 71% | 1015.8 hPa | - | - | - | - |
| 1778195768 | 14.44° C | 66% | 1015.8 hPa | - | - | - | - |
| 1778194868 | 14.44° C | 64% | 1015.7 hPa | - | - | - | - |
| 1778193968 | 15° C | 62% | 1015.6 hPa | - | - | - | - |
| 1778193068 | 15° C | 63% | 1015.6 hPa | - | - | - | - |
| 1778192168 | 15° C | 63% | 1015.5 hPa | - | - | - | - |
| 1778191268 | 15° C | 63% | 1015.5 hPa | - | - | - | - |
| 1778190368 | 15° C | 63% | 1015.3 hPa | - | - | - | - |
| 1778189468 | 15.56° C | 61% | 1015.2 hPa | - | - | - | - |
| 1778188568 | 15.56° C | 60% | 1015.1 hPa | - | - | - | - |
| 1778187668 | 16.11° C | 59% | 1015.1 hPa | - | - | - | - |
| 1778186768 | 16.11° C | 57% | 1015 hPa | - | - | - | - |
| 1778185868 | 16.11° C | 57% | 1015 hPa | - | - | - | - |
| 1778184968 | 16.67° C | 56% | 1015 hPa | - | - | - | - |
| 1778184068 | 16.67° C | 56% | 1014.7 hPa | - | - | - | - |
| 1778183168 | 16.67° C | 55% | 1014.5 hPa | - | - | - | - |
| 1778182268 | 16.67° C | 54% | 1014.3 hPa | - | - | - | - |
| 1778181368 | 16.67° C | 53% | 1014.2 hPa | - | - | - | - |
* Rain since midnight (hover to see other rain measurements)
** Current wind speed in m/s (hover to see current wind gust speed)